createdAt,value
2017-03-26T00:00:37.394Z,0
2017-03-26T00:01:17.888Z,0
2017-03-26T00:01:58.371Z,0
2017-03-26T00:02:38.864Z,0
2017-03-26T00:03:19.405Z,0
2017-03-26T00:03:59.963Z,0
2017-03-26T00:04:40.524Z,0
2017-03-26T00:05:21.036Z,0
2017-03-26T00:06:01.638Z,0
2017-03-26T00:06:42.177Z,0
2017-03-26T00:07:22.700Z,0
2017-03-26T00:08:03.229Z,0
2017-03-26T00:08:43.766Z,0
2017-03-26T00:09:24.326Z,0
2017-03-26T00:10:04.894Z,0
2017-03-26T00:10:45.388Z,0
2017-03-26T00:11:25.850Z,0
2017-03-26T00:12:06.392Z,0
2017-03-26T00:12:46.915Z,0
2017-03-26T00:13:27.474Z,0
2017-03-26T00:14:07.962Z,0
2017-03-26T00:14:48.480Z,0
2017-03-26T00:15:29.067Z,0
2017-03-26T00:16:09.601Z,0
2017-03-26T00:16:50.053Z,0
2017-03-26T00:17:30.568Z,0
2017-03-26T00:18:11.066Z,0
2017-03-26T00:18:51.563Z,0
2017-03-26T00:19:32.106Z,0
2017-03-26T00:20:12.624Z,0
2017-03-26T00:20:53.116Z,0
2017-03-26T00:21:33.611Z,0
2017-03-26T00:22:14.143Z,0
2017-03-26T00:22:54.702Z,0
2017-03-26T00:23:35.178Z,0
2017-03-26T00:24:15.765Z,0
2017-03-26T00:24:56.228Z,0
2017-03-26T00:25:36.804Z,0
2017-03-26T00:26:17.373Z,0
2017-03-26T00:26:57.914Z,0
2017-03-26T00:27:38.473Z,0
2017-03-26T00:28:18.937Z,0
2017-03-26T00:28:59.479Z,0
2017-03-26T00:29:39.977Z,0
2017-03-26T00:30:20.547Z,0
2017-03-26T00:31:01.072Z,0
2017-03-26T00:31:41.573Z,0
2017-03-26T00:32:22.068Z,0
2017-03-26T00:33:02.622Z,0
2017-03-26T00:33:43.116Z,0
2017-03-26T00:34:23.606Z,0
2017-03-26T00:35:04.163Z,0
2017-03-26T00:35:44.649Z,0
2017-03-26T00:36:25.170Z,0
2017-03-26T00:37:05.654Z,0
2017-03-26T00:37:46.234Z,0
2017-03-26T00:38:26.691Z,0
2017-03-26T00:39:07.192Z,0
2017-03-26T00:39:47.739Z,0
2017-03-26T00:40:28.250Z,0
2017-03-26T00:41:08.760Z,0
2017-03-26T00:41:49.236Z,0
2017-03-26T00:42:29.771Z,0
2017-03-26T00:43:10.275Z,0
2017-03-26T00:43:50.798Z,0
2017-03-26T00:44:31.318Z,0
2017-03-26T00:45:11.880Z,0
2017-03-26T00:45:52.394Z,0
2017-03-26T00:46:33.459Z,0
2017-03-26T00:47:13.943Z,0
2017-03-26T00:47:54.460Z,0
2017-03-26T00:48:34.985Z,0
2017-03-26T00:49:15.570Z,0
2017-03-26T00:49:56.071Z,0
2017-03-26T00:50:36.641Z,0
2017-03-26T00:51:17.173Z,0
2017-03-26T00:51:57.671Z,0
2017-03-26T00:52:38.214Z,0
2017-03-26T00:53:18.751Z,0
2017-03-26T00:53:59.268Z,0
2017-03-26T00:54:40.729Z,0
2017-03-26T00:55:21.262Z,0
2017-03-26T00:56:01.763Z,0
2017-03-26T00:56:42.301Z,0
2017-03-26T00:57:22.826Z,0
2017-03-26T00:58:03.361Z,0
2017-03-26T00:58:43.877Z,0
2017-03-26T00:59:24.432Z,0
2017-03-26T01:00:04.981Z,0
2017-03-26T01:00:45.530Z,0
2017-03-26T01:01:26.029Z,0
2017-03-26T01:02:06.576Z,0
2017-03-26T01:02:47.169Z,0
2017-03-26T01:03:27.738Z,0
2017-03-26T01:04:08.259Z,0
2017-03-26T01:04:48.857Z,0
2017-03-26T01:05:29.351Z,0
2017-03-26T01:06:09.837Z,0
2017-03-26T01:06:50.364Z,0
2017-03-26T01:07:30.887Z,0
2017-03-26T01:08:11.401Z,0
2017-03-26T01:08:51.925Z,0
2017-03-26T01:09:32.462Z,0
2017-03-26T01:10:13.072Z,0
2017-03-26T01:10:53.614Z,0
2017-03-26T01:11:34.203Z,0
2017-03-26T01:12:14.709Z,0
2017-03-26T01:12:55.214Z,0
2017-03-26T01:13:35.731Z,0
2017-03-26T01:14:16.237Z,0
2017-03-26T01:14:56.770Z,0
2017-03-26T01:15:37.261Z,0
2017-03-26T01:16:17.808Z,0
2017-03-26T01:16:58.352Z,0
2017-03-26T01:17:38.840Z,0
2017-03-26T01:18:19.375Z,0
2017-03-26T01:18:59.896Z,0
2017-03-26T01:19:40.434Z,0
2017-03-26T01:20:20.926Z,0
2017-03-26T01:21:01.429Z,0
2017-03-26T01:21:41.944Z,0
2017-03-26T01:22:22.496Z,0
2017-03-26T01:24:36.709Z,0
2017-03-26T01:25:17.222Z,0
2017-03-26T01:25:57.754Z,0
2017-03-26T01:26:38.268Z,0
2017-03-26T01:27:18.777Z,0
2017-03-26T01:27:59.331Z,0
2017-03-26T01:28:39.797Z,0
2017-03-26T01:29:20.322Z,0
2017-03-26T01:30:00.893Z,0
2017-03-26T01:30:41.432Z,0
2017-03-26T01:31:21.931Z,0
2017-03-26T01:32:02.472Z,0
2017-03-26T01:32:42.956Z,0
2017-03-26T01:33:23.461Z,0
2017-03-26T01:34:03.986Z,0
2017-03-26T01:34:44.530Z,0
2017-03-26T01:35:25.038Z,0
2017-03-26T01:36:05.559Z,0
2017-03-26T01:36:46.076Z,0
2017-03-26T01:37:27.198Z,0
2017-03-26T01:38:07.797Z,0
2017-03-26T01:38:48.377Z,0
2017-03-26T01:39:28.921Z,0
2017-03-26T01:40:09.407Z,0
2017-03-26T01:40:49.929Z,0
2017-03-26T01:41:30.505Z,0
2017-03-26T01:42:11.029Z,0
2017-03-26T01:42:51.530Z,0
2017-03-26T01:43:32.015Z,0
2017-03-26T01:44:12.558Z,0
2017-03-26T01:44:53.088Z,0
2017-03-26T01:45:33.627Z,0
2017-03-26T01:46:14.195Z,0
2017-03-26T01:46:54.763Z,0
2017-03-26T01:47:35.314Z,0
2017-03-26T01:48:15.942Z,0
2017-03-26T01:48:56.458Z,0
2017-03-26T01:49:36.974Z,0
2017-03-26T01:50:17.506Z,0
2017-03-26T01:50:58.006Z,0
2017-03-26T01:51:38.539Z,0
2017-03-26T01:52:19.076Z,0
2017-03-26T01:52:59.603Z,0
2017-03-26T01:53:40.166Z,0
2017-03-26T01:54:20.711Z,0
2017-03-26T01:55:01.213Z,0
2017-03-26T01:55:41.775Z,0
2017-03-26T01:56:22.352Z,0
2017-03-26T01:57:02.870Z,0
2017-03-26T01:57:43.371Z,0
2017-03-26T01:58:23.911Z,0
2017-03-26T01:59:04.459Z,0
2017-03-26T01:59:44.971Z,0
2017-03-26T02:00:25.502Z,0
2017-03-26T02:01:06.041Z,0
2017-03-26T02:01:46.593Z,0
2017-03-26T02:02:27.109Z,0
2017-03-26T02:03:07.670Z,0
2017-03-26T02:03:48.227Z,0
2017-03-26T02:04:28.703Z,0
2017-03-26T02:05:09.274Z,0
2017-03-26T02:05:49.759Z,0
2017-03-26T02:06:30.241Z,0
2017-03-26T02:07:10.773Z,0
2017-03-26T02:07:51.241Z,0
2017-03-26T02:08:31.740Z,0
2017-03-26T02:09:12.279Z,0
2017-03-26T02:09:52.833Z,0
2017-03-26T02:10:33.376Z,0
2017-03-26T02:11:13.926Z,0
2017-03-26T02:11:54.963Z,0
2017-03-26T02:12:35.530Z,0
2017-03-26T02:13:16.085Z,0
2017-03-26T02:13:56.615Z,0
2017-03-26T02:14:37.153Z,0
2017-03-26T02:15:17.727Z,0
2017-03-26T02:15:58.237Z,0
2017-03-26T02:16:38.766Z,0
2017-03-26T02:17:19.339Z,0
2017-03-26T02:17:59.885Z,0
2017-03-26T02:18:40.424Z,0
2017-03-26T02:19:20.979Z,0
2017-03-26T02:20:01.524Z,0
2017-03-26T02:20:42.093Z,0
2017-03-26T02:21:22.646Z,0
2017-03-26T02:22:03.205Z,0
2017-03-26T02:22:43.671Z,0
2017-03-26T02:23:24.236Z,0
2017-03-26T02:24:05.484Z,0
2017-03-26T02:24:46.016Z,0
2017-03-26T02:25:26.512Z,0
2017-03-26T02:26:07.016Z,0
2017-03-26T02:26:47.555Z,0
2017-03-26T02:27:28.084Z,0
2017-03-26T02:28:08.684Z,0
2017-03-26T02:28:49.198Z,0
2017-03-26T02:29:29.750Z,0
2017-03-26T02:30:10.264Z,0
2017-03-26T02:30:50.853Z,0
2017-03-26T02:31:31.376Z,0
2017-03-26T02:32:11.877Z,0
2017-03-26T02:32:52.421Z,0
2017-03-26T02:33:32.910Z,0
2017-03-26T02:34:13.455Z,0
2017-03-26T02:34:53.974Z,0
2017-03-26T02:35:34.444Z,0
2017-03-26T02:36:14.962Z,0
2017-03-26T02:36:55.461Z,0
2017-03-26T02:37:35.994Z,0
2017-03-26T02:38:16.541Z,0
2017-03-26T02:38:57.030Z,0
2017-03-26T02:39:37.560Z,0
2017-03-26T02:40:18.096Z,0
2017-03-26T02:40:58.716Z,0
2017-03-26T02:41:39.266Z,0
2017-03-26T02:42:19.780Z,0
2017-03-26T02:43:00.296Z,0
2017-03-26T02:43:40.825Z,0
2017-03-26T02:44:21.338Z,0
2017-03-26T02:45:01.882Z,0
2017-03-26T02:45:42.436Z,0
2017-03-26T02:46:22.988Z,0
2017-03-26T02:47:03.511Z,0
2017-03-26T02:47:44.059Z,0
2017-03-26T02:48:24.571Z,0
2017-03-26T02:49:05.124Z,0
2017-03-26T02:49:45.652Z,0
2017-03-26T02:50:26.149Z,0
2017-03-26T02:51:06.657Z,0
2017-03-26T02:51:47.173Z,0
2017-03-26T02:52:27.698Z,0
2017-03-26T02:53:08.238Z,0
2017-03-26T02:53:48.808Z,0
2017-03-26T02:54:29.374Z,0
2017-03-26T02:55:09.900Z,0
2017-03-26T02:55:50.442Z,0
2017-03-26T02:56:30.987Z,0
2017-03-26T02:57:11.498Z,0
2017-03-26T02:57:52.019Z,0
2017-03-26T02:58:32.531Z,0
2017-03-26T02:59:13.047Z,0
2017-03-26T02:59:53.582Z,0
2017-03-26T03:00:34.089Z,0
2017-03-26T03:01:14.591Z,0
2017-03-26T03:01:55.121Z,0
2017-03-26T03:02:35.617Z,0
2017-03-26T03:03:16.171Z,0
2017-03-26T03:03:56.693Z,0
2017-03-26T03:04:37.207Z,0
2017-03-26T03:05:17.717Z,0
2017-03-26T03:05:58.215Z,0
2017-03-26T03:06:38.734Z,0
2017-03-26T03:07:19.245Z,0
2017-03-26T03:07:59.748Z,0
2017-03-26T03:08:40.240Z,0
2017-03-26T03:09:20.783Z,0
2017-03-26T03:10:01.293Z,0
2017-03-26T03:10:41.813Z,0
2017-03-26T03:11:22.337Z,0
2017-03-26T03:12:02.820Z,0
2017-03-26T03:12:43.329Z,0
2017-03-26T03:13:23.803Z,0
2017-03-26T03:14:04.293Z,0
2017-03-26T03:14:44.818Z,0
2017-03-26T03:15:25.344Z,0
2017-03-26T03:16:05.855Z,0
2017-03-26T03:16:46.367Z,0
2017-03-26T03:17:26.877Z,0
2017-03-26T03:18:07.391Z,0
2017-03-26T03:18:47.901Z,0
2017-03-26T03:19:28.413Z,0
2017-03-26T03:20:08.892Z,0
2017-03-26T03:20:49.418Z,0
2017-03-26T03:21:30.006Z,0
2017-03-26T03:22:10.499Z,0
2017-03-26T03:22:50.991Z,0
2017-03-26T03:23:31.496Z,0
2017-03-26T03:24:12.007Z,0
2017-03-26T03:24:52.565Z,0
2017-03-26T03:25:33.039Z,0
2017-03-26T03:26:13.576Z,0
2017-03-26T03:26:54.075Z,0
2017-03-26T03:27:34.580Z,0
2017-03-26T03:28:15.078Z,0
2017-03-26T03:28:55.653Z,0
2017-03-26T03:29:36.268Z,0
2017-03-26T03:30:16.852Z,0
2017-03-26T03:30:57.505Z,0
2017-03-26T03:31:38.066Z,0
2017-03-26T03:32:18.614Z,0
2017-03-26T03:32:59.230Z,0
2017-03-26T03:33:39.848Z,0
2017-03-26T03:34:20.432Z,0
2017-03-26T03:35:01.003Z,0
2017-03-26T03:35:41.555Z,0
2017-03-26T03:36:22.115Z,0
2017-03-26T03:37:02.741Z,0
2017-03-26T03:37:43.340Z,0
2017-03-26T03:38:23.853Z,0
2017-03-26T03:39:04.429Z,0
2017-03-26T03:39:44.920Z,0
2017-03-26T03:40:25.481Z,0
2017-03-26T03:41:06.062Z,0
2017-03-26T03:41:46.626Z,0
2017-03-26T03:42:27.288Z,0
2017-03-26T03:43:07.854Z,0
2017-03-26T03:43:48.361Z,0
2017-03-26T03:44:28.999Z,0
2017-03-26T03:45:09.619Z,0
2017-03-26T03:45:50.202Z,0
2017-03-26T03:46:30.724Z,0
2017-03-26T03:47:11.262Z,0
2017-03-26T03:47:51.860Z,0
2017-03-26T03:48:32.522Z,0
2017-03-26T03:49:13.067Z,0
2017-03-26T03:49:53.594Z,0
2017-03-26T03:50:34.189Z,0
2017-03-26T03:51:14.833Z,0
2017-03-26T03:51:55.401Z,0
2017-03-26T03:52:36.280Z,0
2017-03-26T03:53:16.770Z,0
2017-03-26T03:53:57.277Z,0
2017-03-26T03:54:37.876Z,0
2017-03-26T03:55:18.378Z,0
2017-03-26T03:55:59.497Z,0
2017-03-26T03:56:40.167Z,0
2017-03-26T03:57:20.757Z,0
2017-03-26T03:58:01.337Z,0
2017-03-26T03:58:41.903Z,0
2017-03-26T03:59:22.546Z,0
2017-03-26T04:00:03.112Z,0
2017-03-26T04:00:43.637Z,0
2017-03-26T04:01:24.186Z,0
2017-03-26T04:02:04.723Z,0
2017-03-26T04:02:45.215Z,0
2017-03-26T04:03:25.736Z,0
2017-03-26T04:04:06.311Z,0
2017-03-26T04:04:46.855Z,0
2017-03-26T04:05:27.384Z,0
2017-03-26T04:06:07.919Z,0
2017-03-26T04:06:48.761Z,0
2017-03-26T04:07:29.352Z,0
2017-03-26T04:08:09.883Z,0
2017-03-26T04:08:50.408Z,0
2017-03-26T04:09:30.929Z,0
2017-03-26T04:10:11.487Z,0
2017-03-26T04:10:52.034Z,0
2017-03-26T04:11:32.531Z,0
2017-03-26T04:12:13.082Z,0
2017-03-26T04:12:53.597Z,0
2017-03-26T04:13:34.212Z,0
2017-03-26T04:14:14.732Z,0
2017-03-26T04:14:55.220Z,0
2017-03-26T04:15:35.769Z,0
2017-03-26T04:16:16.345Z,0
2017-03-26T04:16:56.935Z,0
2017-03-26T04:17:37.474Z,0
2017-03-26T04:18:18.006Z,0
2017-03-26T04:18:58.529Z,0
2017-03-26T04:19:39.004Z,0
2017-03-26T04:20:19.528Z,0
2017-03-26T04:21:00.068Z,0
2017-03-26T04:21:40.615Z,0
2017-03-26T04:22:21.182Z,0
2017-03-26T04:23:01.743Z,0
2017-03-26T04:23:42.315Z,0
2017-03-26T04:24:22.918Z,0
2017-03-26T04:25:03.439Z,0
2017-03-26T04:25:43.914Z,0
2017-03-26T04:26:24.453Z,0
2017-03-26T04:27:04.990Z,0
2017-03-26T04:27:45.473Z,0
2017-03-26T04:28:26.169Z,0
2017-03-26T04:29:06.754Z,0
2017-03-26T04:29:47.259Z,0
2017-03-26T04:30:27.769Z,0
2017-03-26T04:31:08.352Z,0
2017-03-26T04:31:48.914Z,0
2017-03-26T04:32:29.456Z,0
2017-03-26T04:33:10.046Z,0
2017-03-26T04:33:50.542Z,0
2017-03-26T04:34:31.082Z,0
2017-03-26T04:35:11.622Z,0
2017-03-26T04:35:52.166Z,0
2017-03-26T04:36:32.640Z,0
2017-03-26T04:37:13.154Z,0
2017-03-26T04:37:53.663Z,0
2017-03-26T04:38:34.217Z,0
2017-03-26T04:39:14.691Z,0
2017-03-26T04:39:55.216Z,0
2017-03-26T04:40:35.727Z,0
2017-03-26T04:41:16.257Z,0
2017-03-26T04:41:56.774Z,0
2017-03-26T04:42:37.343Z,0
2017-03-26T04:43:17.844Z,0
2017-03-26T04:43:58.387Z,0
2017-03-26T04:44:38.861Z,0
2017-03-26T04:45:19.386Z,0
2017-03-26T04:45:59.914Z,0
2017-03-26T04:46:40.456Z,0
2017-03-26T04:47:21.006Z,0
2017-03-26T04:48:01.547Z,0
2017-03-26T04:48:42.073Z,0
2017-03-26T04:49:22.619Z,0
2017-03-26T04:50:03.161Z,0
2017-03-26T04:50:43.729Z,0
2017-03-26T04:51:24.251Z,0
2017-03-26T04:52:04.804Z,0
2017-03-26T04:52:45.361Z,0
2017-03-26T04:53:26.015Z,0
2017-03-26T04:54:06.527Z,0
2017-03-26T04:54:47.083Z,0
2017-03-26T04:55:27.649Z,0
2017-03-26T04:56:08.190Z,0
2017-03-26T04:56:48.688Z,0
2017-03-26T04:57:29.196Z,0
2017-03-26T04:58:09.853Z,0
2017-03-26T04:58:50.524Z,0
2017-03-26T04:59:31.129Z,0
2017-03-26T05:00:11.641Z,0
2017-03-26T05:00:52.220Z,0
2017-03-26T05:01:32.790Z,0
2017-03-26T05:02:13.361Z,0
2017-03-26T05:02:53.934Z,0
2017-03-26T05:03:34.493Z,0
2017-03-26T05:04:15.058Z,0
2017-03-26T05:04:55.661Z,0
2017-03-26T05:05:36.149Z,0
2017-03-26T05:06:16.731Z,0
2017-03-26T05:06:57.845Z,0
2017-03-26T05:07:38.521Z,0
2017-03-26T05:08:19.121Z,0
2017-03-26T05:08:59.617Z,0
2017-03-26T05:09:40.145Z,0
2017-03-26T05:10:20.693Z,0
2017-03-26T05:11:01.269Z,0
2017-03-26T05:11:41.778Z,0
2017-03-26T05:12:22.276Z,0
2017-03-26T05:13:02.805Z,0
2017-03-26T05:13:43.368Z,0
2017-03-26T05:14:23.993Z,0
2017-03-26T05:15:04.532Z,0
2017-03-26T05:15:45.151Z,0
2017-03-26T05:16:25.667Z,0
2017-03-26T05:17:06.310Z,0
2017-03-26T05:17:46.859Z,0
2017-03-26T05:18:27.424Z,0
2017-03-26T05:19:08.060Z,0
2017-03-26T05:19:48.603Z,5
2017-03-26T05:20:29.137Z,5
2017-03-26T05:21:09.726Z,5
2017-03-26T05:21:50.289Z,5
2017-03-26T05:22:31.864Z,5
2017-03-26T05:23:12.455Z,5
2017-03-26T05:23:52.956Z,5
2017-03-26T05:24:33.546Z,5
2017-03-26T05:25:14.005Z,5
2017-03-26T05:25:54.589Z,5
2017-03-26T05:26:35.122Z,5
2017-03-26T05:27:15.627Z,5
2017-03-26T05:27:56.171Z,10
2017-03-26T05:28:36.729Z,10
2017-03-26T05:29:17.364Z,10
2017-03-26T05:29:57.884Z,10
2017-03-26T05:30:38.411Z,10
2017-03-26T05:31:18.951Z,10
2017-03-26T05:31:59.463Z,10
2017-03-26T05:32:40.018Z,10
2017-03-26T05:33:20.557Z,15
2017-03-26T05:34:01.147Z,15
2017-03-26T05:34:41.549Z,15
2017-03-26T05:35:22.151Z,15
2017-03-26T05:36:02.716Z,15
2017-03-26T05:36:43.178Z,15
2017-03-26T05:37:23.805Z,20
2017-03-26T05:38:04.311Z,20
2017-03-26T05:38:44.817Z,20
2017-03-26T05:39:25.428Z,20
2017-03-26T05:40:05.869Z,20
2017-03-26T05:40:46.401Z,25
2017-03-26T05:41:26.974Z,25
2017-03-26T05:42:07.516Z,25
2017-03-26T05:42:48.053Z,25
2017-03-26T05:43:28.627Z,25
2017-03-26T05:44:09.157Z,30
2017-03-26T05:44:49.722Z,30
2017-03-26T05:45:30.323Z,30
2017-03-26T05:46:11.971Z,30
2017-03-26T05:46:53.653Z,35
2017-03-26T05:47:34.464Z,35
2017-03-26T05:48:15.018Z,35
2017-03-26T05:48:55.619Z,35
2017-03-26T05:49:36.064Z,40
2017-03-26T05:50:16.650Z,40
2017-03-26T05:50:57.133Z,40
2017-03-26T05:51:37.704Z,40
2017-03-26T05:52:18.305Z,45
2017-03-26T05:52:58.859Z,45
2017-03-26T05:53:39.430Z,45
2017-03-26T05:54:20.015Z,45
2017-03-26T05:55:00.609Z,50
2017-03-26T05:55:41.208Z,50
2017-03-26T05:56:21.719Z,50
2017-03-26T05:57:02.290Z,50
2017-03-26T05:57:42.749Z,55
2017-03-26T05:58:23.795Z,55
2017-03-26T05:59:04.387Z,55
2017-03-26T05:59:44.895Z,55
2017-03-26T06:00:25.379Z,60
2017-03-26T06:01:05.994Z,60
2017-03-26T06:01:46.573Z,60
2017-03-26T06:02:27.078Z,60
2017-03-26T06:03:07.657Z,60
2017-03-26T06:03:48.305Z,60
2017-03-26T06:04:28.735Z,65
2017-03-26T06:05:09.266Z,65
2017-03-26T06:05:49.861Z,65
2017-03-26T06:06:30.385Z,65
2017-03-26T06:07:10.884Z,65
2017-03-26T06:07:51.489Z,65
2017-03-26T06:08:32.037Z,65
2017-03-26T06:09:12.614Z,70
2017-03-26T06:09:53.222Z,70
2017-03-26T06:10:33.718Z,70
2017-03-26T06:11:14.206Z,70
2017-03-26T06:11:54.801Z,70
2017-03-26T06:12:35.322Z,70
2017-03-26T06:13:15.887Z,75
2017-03-26T06:13:56.402Z,75
2017-03-26T06:14:36.931Z,75
2017-03-26T06:15:17.487Z,75
2017-03-26T06:15:58.006Z,75
2017-03-26T06:16:38.555Z,75
2017-03-26T06:17:19.110Z,75
2017-03-26T06:17:59.688Z,75
2017-03-26T06:18:40.294Z,75
2017-03-26T06:19:20.855Z,75
2017-03-26T06:20:01.415Z,75
2017-03-26T06:20:42.005Z,75
2017-03-26T06:21:22.532Z,80
2017-03-26T06:22:03.110Z,80
2017-03-26T06:22:43.657Z,80
2017-03-26T06:23:24.193Z,80
2017-03-26T06:24:04.720Z,80
2017-03-26T06:24:45.345Z,85
2017-03-26T06:25:25.812Z,85
2017-03-26T06:26:06.359Z,85
2017-03-26T06:26:46.895Z,85
2017-03-26T06:27:27.431Z,90
2017-03-26T06:28:08.005Z,90
2017-03-26T06:28:48.442Z,90
2017-03-26T06:29:29.121Z,90
2017-03-26T06:30:09.625Z,95
2017-03-26T06:30:50.137Z,95
2017-03-26T06:31:30.707Z,95
2017-03-26T06:32:11.240Z,95
2017-03-26T06:32:51.837Z,95
2017-03-26T06:33:32.392Z,95
2017-03-26T06:34:13.001Z,100
2017-03-26T06:34:53.615Z,100
2017-03-26T06:35:35.648Z,100
2017-03-26T06:36:18.286Z,100
2017-03-26T06:37:00.829Z,105
2017-03-26T06:37:43.135Z,105
2017-03-26T06:38:25.550Z,105
2017-03-26T06:39:07.952Z,105
2017-03-26T06:39:50.018Z,110
2017-03-26T06:40:30.743Z,110
2017-03-26T06:41:11.288Z,110
2017-03-26T06:41:51.957Z,110
2017-03-26T06:42:32.410Z,115
2017-03-26T06:43:13.038Z,115
2017-03-26T06:43:53.543Z,115
2017-03-26T06:44:34.117Z,115
2017-03-26T06:45:14.674Z,120
2017-03-26T06:45:55.325Z,120
2017-03-26T06:46:35.909Z,120
2017-03-26T06:47:16.577Z,125
2017-03-26T06:47:57.209Z,125
2017-03-26T06:48:37.728Z,125
2017-03-26T06:49:18.498Z,125
2017-03-26T06:49:59.082Z,130
2017-03-26T06:50:39.622Z,130
2017-03-26T06:51:20.195Z,130
2017-03-26T06:52:00.740Z,135
2017-03-26T06:52:41.279Z,135
2017-03-26T06:53:21.781Z,135
2017-03-26T06:54:02.411Z,135
2017-03-26T06:54:42.971Z,140
2017-03-26T06:55:23.603Z,140
2017-03-26T06:56:04.074Z,140
2017-03-26T06:56:44.583Z,145
2017-03-26T06:57:25.280Z,145
2017-03-26T06:58:05.959Z,145
2017-03-26T06:58:46.527Z,150
2017-03-26T06:59:27.204Z,150
2017-03-26T07:00:07.680Z,150
2017-03-26T07:00:48.215Z,155
2017-03-26T07:01:28.818Z,155
2017-03-26T07:02:09.417Z,155
2017-03-26T07:02:49.897Z,160
2017-03-26T07:03:30.424Z,165
2017-03-26T07:04:13.372Z,160
2017-03-26T07:04:53.883Z,165
2017-03-26T07:05:34.481Z,170
2017-03-26T07:06:15.060Z,170
2017-03-26T07:06:55.695Z,175
2017-03-26T07:07:36.259Z,175
2017-03-26T07:08:16.815Z,180
2017-03-26T07:08:57.387Z,180
2017-03-26T07:09:38.586Z,180
2017-03-26T07:10:19.618Z,180
2017-03-26T07:11:00.157Z,185
2017-03-26T07:11:40.812Z,190
2017-03-26T07:12:21.435Z,190
2017-03-26T07:13:01.983Z,195
2017-03-26T07:13:42.558Z,195
2017-03-26T07:14:24.290Z,195
2017-03-26T07:15:04.791Z,195
2017-03-26T07:15:45.319Z,195
2017-03-26T07:16:25.943Z,195
2017-03-26T07:17:06.440Z,195
2017-03-26T07:17:46.969Z,195
2017-03-26T07:18:27.463Z,195
2017-03-26T07:19:08.006Z,195
2017-03-26T07:19:48.539Z,195
2017-03-26T07:20:29.087Z,195
2017-03-26T07:21:09.573Z,195
2017-03-26T07:21:50.173Z,195
2017-03-26T07:22:30.648Z,195
2017-03-26T07:23:11.164Z,200
2017-03-26T07:23:51.685Z,200
2017-03-26T07:24:32.227Z,200
2017-03-26T07:25:12.797Z,200
2017-03-26T07:25:53.289Z,205
2017-03-26T07:26:33.922Z,205
2017-03-26T07:27:14.416Z,200
2017-03-26T07:27:54.940Z,205
2017-03-26T07:28:35.530Z,210
2017-03-26T07:29:16.414Z,210
2017-03-26T07:29:57.595Z,210
2017-03-26T07:30:38.423Z,205
2017-03-26T07:31:19.092Z,210
2017-03-26T07:31:59.667Z,215
2017-03-26T07:32:40.239Z,215
2017-03-26T07:33:20.786Z,210
2017-03-26T07:34:01.343Z,205
2017-03-26T07:34:41.956Z,210
2017-03-26T07:35:22.665Z,210
2017-03-26T07:36:03.176Z,215
2017-03-26T07:36:43.790Z,220
2017-03-26T07:37:24.378Z,225
2017-03-26T07:38:04.946Z,225
2017-03-26T07:38:45.554Z,225
2017-03-26T07:39:26.156Z,230
2017-03-26T07:40:06.708Z,230
2017-03-26T07:40:47.252Z,230
2017-03-26T07:41:27.755Z,230
2017-03-26T07:42:08.365Z,230
2017-03-26T07:42:49.357Z,230
2017-03-26T07:43:29.853Z,230
2017-03-26T07:44:10.355Z,235
2017-03-26T07:44:50.940Z,235
2017-03-26T07:45:31.503Z,235
2017-03-26T07:46:11.978Z,240
2017-03-26T07:46:52.519Z,240
2017-03-26T07:47:33.028Z,245
2017-03-26T07:48:13.636Z,245
2017-03-26T07:48:54.157Z,250
2017-03-26T07:49:34.731Z,250
2017-03-26T07:50:15.335Z,260
2017-03-26T07:50:56.205Z,255
2017-03-26T07:51:36.918Z,260
2017-03-26T07:52:17.454Z,265
2017-03-26T07:52:58.072Z,265
2017-03-26T07:53:38.726Z,270
2017-03-26T07:54:19.374Z,270
2017-03-26T07:54:59.968Z,275
2017-03-26T07:55:40.643Z,280
2017-03-26T07:56:21.156Z,285
2017-03-26T07:57:01.746Z,285
2017-03-26T07:57:42.485Z,285
2017-03-26T07:58:23.227Z,285
2017-03-26T07:59:03.946Z,285
2017-03-26T07:59:44.426Z,285
2017-03-26T08:00:25.096Z,290
2017-03-26T08:01:05.514Z,285
2017-03-26T08:01:46.053Z,280
2017-03-26T08:02:26.713Z,280
2017-03-26T08:03:07.501Z,270
2017-03-26T08:03:48.022Z,265
2017-03-26T08:04:28.593Z,270
2017-03-26T08:05:09.178Z,270
2017-03-26T08:05:49.688Z,265
2017-03-26T08:06:30.343Z,265
2017-03-26T08:07:10.868Z,270
2017-03-26T08:07:51.633Z,270
2017-03-26T08:08:32.247Z,275
2017-03-26T08:09:12.966Z,280
2017-03-26T08:09:53.609Z,285
2017-03-26T08:10:34.154Z,295
2017-03-26T08:11:14.835Z,300
2017-03-26T08:11:55.582Z,305
2017-03-26T08:13:16.985Z,310
2017-03-26T08:13:57.536Z,320
2017-03-26T08:14:38.370Z,330
2017-03-26T08:15:19.294Z,340
2017-03-26T08:16:00.204Z,585
2017-03-26T08:16:42.325Z,805
2017-03-26T08:17:23.283Z,940
2017-03-26T08:18:04.117Z,720
2017-03-26T08:18:45.109Z,580
2017-03-26T08:19:25.593Z,405
2017-03-26T08:20:06.236Z,355
2017-03-26T08:20:46.851Z,345
2017-03-26T08:21:27.710Z,330
2017-03-26T08:22:08.460Z,320
2017-03-26T08:24:33.850Z,325
2017-03-26T08:25:14.371Z,325
2017-03-26T08:25:55.005Z,325
2017-03-26T08:26:35.607Z,325
2017-03-26T08:27:16.550Z,340
2017-03-26T08:27:57.087Z,335
2017-03-26T08:28:37.671Z,330
2017-03-26T08:29:18.316Z,330
2017-03-26T08:29:58.940Z,330
2017-03-26T08:30:39.554Z,335
2017-03-26T08:31:20.176Z,335
2017-03-26T08:32:00.949Z,335
2017-03-26T08:32:41.394Z,335
2017-03-26T08:33:22.114Z,335
2017-03-26T08:34:02.929Z,340
2017-03-26T08:34:43.515Z,340
2017-03-26T08:35:24.033Z,345
2017-03-26T08:36:04.663Z,345
2017-03-26T08:36:45.230Z,355
2017-03-26T08:37:26.282Z,440
2017-03-26T08:38:06.790Z,475
2017-03-26T08:38:47.502Z,400
2017-03-26T08:39:28.111Z,345
2017-03-26T08:40:08.981Z,335
2017-03-26T08:40:49.509Z,335
2017-03-26T08:41:30.010Z,340
2017-03-26T08:42:10.644Z,335
2017-03-26T08:42:51.250Z,335
2017-03-26T08:43:31.682Z,335
2017-03-26T08:44:12.209Z,330
2017-03-26T08:44:52.720Z,335
2017-03-26T08:45:33.241Z,330
2017-03-26T08:46:13.785Z,330
2017-03-26T08:46:54.289Z,335
2017-03-26T08:47:34.838Z,335
2017-03-26T08:48:15.395Z,335
2017-03-26T08:48:55.920Z,345
2017-03-26T08:49:36.666Z,350
2017-03-26T08:50:17.422Z,430
2017-03-26T08:50:58.201Z,810
2017-03-26T08:51:38.821Z,1030
2017-03-26T08:52:19.387Z,1060
2017-03-26T08:53:00.047Z,1005
2017-03-26T08:53:40.595Z,920
2017-03-26T08:54:21.125Z,750
2017-03-26T08:55:01.772Z,560
2017-03-26T08:55:42.374Z,445
2017-03-26T08:56:22.927Z,495
2017-03-26T08:57:03.557Z,740
2017-03-26T08:57:44.255Z,1020
2017-03-26T08:58:24.786Z,1010
2017-03-26T08:59:05.404Z,755
2017-03-26T08:59:45.898Z,510
2017-03-26T09:00:26.421Z,545
2017-03-26T09:01:06.943Z,725
2017-03-26T09:01:47.464Z,820
2017-03-26T09:02:27.978Z,700
2017-03-26T09:03:08.498Z,650
2017-03-26T09:03:49.029Z,1150
2017-03-26T09:04:29.560Z,1770
2017-03-26T09:05:10.058Z,2120
2017-03-26T09:05:50.623Z,2175
2017-03-26T09:06:31.113Z,2165
2017-03-26T09:07:11.732Z,2085
2017-03-26T09:07:52.230Z,2070
2017-03-26T09:08:32.851Z,2025
2017-03-26T09:09:13.384Z,2005
2017-03-26T09:09:53.947Z,1930
2017-03-26T09:10:34.384Z,1965
2017-03-26T09:11:14.909Z,2075
2017-03-26T09:11:55.432Z,2085
2017-03-26T09:12:35.933Z,2170
2017-03-26T09:13:16.458Z,2245
2017-03-26T09:13:57.005Z,2310
2017-03-26T09:14:37.517Z,2275
2017-03-26T09:15:18.034Z,2235
2017-03-26T09:15:58.539Z,2200
2017-03-26T09:16:39.081Z,2110
2017-03-26T09:17:19.614Z,2100
2017-03-26T09:18:00.131Z,2120
2017-03-26T09:18:40.651Z,2185
2017-03-26T09:19:21.174Z,2150
2017-03-26T09:20:01.692Z,2190
2017-03-26T09:20:42.218Z,2065
2017-03-26T09:21:22.744Z,2220
2017-03-26T09:22:03.302Z,2180
2017-03-26T09:22:43.892Z,2215
2017-03-26T09:23:24.478Z,2285
2017-03-26T09:24:05.008Z,2260
2017-03-26T09:24:45.579Z,2200
2017-03-26T09:25:26.105Z,2185
2017-03-26T09:26:06.623Z,2155
2017-03-26T09:26:47.146Z,2155
2017-03-26T09:27:27.680Z,1975
2017-03-26T09:28:08.193Z,2120
2017-03-26T09:28:48.742Z,2245
2017-03-26T09:29:29.230Z,2320
2017-03-26T09:30:09.754Z,2270
2017-03-26T09:30:50.310Z,2245
2017-03-26T09:31:30.823Z,2305
2017-03-26T09:32:11.356Z,2330
2017-03-26T09:32:51.872Z,2355
2017-03-26T09:33:32.387Z,2375
2017-03-26T09:34:13.006Z,2465
2017-03-26T09:34:53.490Z,2570
2017-03-26T09:35:33.972Z,2585
2017-03-26T09:36:14.503Z,2570
2017-03-26T09:36:55.081Z,2515
2017-03-26T09:37:35.681Z,2510
2017-03-26T09:38:16.235Z,2555
2017-03-26T09:38:56.716Z,2525
2017-03-26T09:39:37.242Z,2395
2017-03-26T09:40:17.824Z,2370
2017-03-26T09:40:58.379Z,2240
2017-03-26T09:41:38.904Z,2090
2017-03-26T09:42:19.441Z,1910
2017-03-26T09:42:59.959Z,1840
2017-03-26T09:43:40.493Z,1770
2017-03-26T09:44:21.001Z,1780
2017-03-26T09:45:01.593Z,1715
2017-03-26T09:45:42.105Z,1705
2017-03-26T09:46:22.640Z,1890